PWSweather.com
Personal Weather Stations
Station Observations
METEOBYST1
BystCZ

BystCZ

Lat: 50.124, Lon: 15.907

Elevation: 243

Station Type:

http://www.meteobyst.cz

Latest ConditionsUpdated 10:16:52 PM GMT+01:01 Thursday, Sep 21, 2017
Currently Today's Max Today's Min Today's Average
Temperature 53.4°F11.9°C 60.1°F15.6°C 43.2°F6.2°C 52.6°F11.4°C
Dew Point 50.0°F10.0°C 53.0°F11.7°C 40.0°F4.4°C 47.5°F8.6°C
Winds 1.8 mph W2.9 kmh W 6.3 mph W10.1 kmh W - 2.0 mph 3.2 kmh
Wind Gusts 3.6 mph5.8 kmh 10.5 mph16.9 kmh - -
Humidity 88% 90% 72% 83%
Pressure 30.08 in1018.6 mb 30.13 in1020.3 mb 30.06 in1017.9 mb -
Precipitation - 0.01 in0.3 mm - -
Hour Temp Dew Point Humidity Winds Wind Gusts Pressure Precip Precip Rate Daily Precip Total
10:16 PM 53.4°F11.9°C 50.0°F10.0°C 88% 1.8 mph W2.9 kmh W 3.6 mph5.8 kmh 30.08 in1018.6 mb 0.00 in0.0 mm 0.00 in0.0 mm 0.01 in0.3 mm
10:11 PM 53.4°F11.9°C 50.0°F10.0°C 88% 1.8 mph NW2.9 kmh NW 3.6 mph5.8 kmh 30.09 in1019.0 mb 0.00 in0.0 mm 0.00 in0.0 mm 0.01 in0.3 mm
10:06 PM 53.2°F11.8°C 50.0°F10.0°C 88% 1.8 mph NW2.9 kmh NW 3.6 mph5.8 kmh 30.09 in1019.0 mb 0.00 in0.0 mm 0.00 in0.0 mm 0.01 in0.3 mm
10:01 PM 53.1°F11.7°C 50.0°F10.0°C 88% 1.8 mph NW2.9 kmh NW 3.6 mph5.8 kmh 30.09 in1019.0 mb 0.00 in0.0 mm 0.00 in0.0 mm 0.01 in0.3 mm
09:56 PM 53.2°F11.8°C 50.0°F10.0°C 88% 1.8 mph NW2.9 kmh NW 4.5 mph7.2 kmh 30.09 in1019.0 mb 0.00 in0.0 mm 0.00 in0.0 mm 0.01 in0.3 mm
09:51 PM 53.1°F11.7°C 49.0°F9.4°C 87% 1.8 mph NW2.9 kmh NW 4.5 mph7.2 kmh 30.09 in1019.0 mb 0.00 in0.0 mm 0.00 in0.0 mm 0.01 in0.3 mm
09:46 PM 53.2°F11.8°C 50.0°F10.0°C 87% 1.8 mph NW2.9 kmh NW 4.5 mph7.2 kmh 30.09 in1019.0 mb 0.00 in0.0 mm 0.00 in0.0 mm 0.01 in0.3 mm
09:41 PM 53.6°F12.0°C 50.0°F10.0°C 87% 1.8 mph NW2.9 kmh NW 2.7 mph4.3 kmh 30.09 in1019.0 mb 0.00 in0.0 mm 0.00 in0.0 mm 0.01 in0.3 mm
09:36 PM 53.6°F12.0°C 50.0°F10.0°C 86% 0.9 mph W1.4 kmh W 2.7 mph4.3 kmh 30.09 in1019.0 mb 0.00 in0.0 mm 0.00 in0.0 mm 0.00 in0.0 mm
09:31 PM 53.6°F12.0°C 50.0°F10.0°C 86% 0.9 mph NW1.4 kmh NW 2.7 mph4.3 kmh 30.09 in1019.0 mb 0.00 in0.0 mm 0.00 in0.0 mm 0.00 in0.0 mm
09:26 PM 53.4°F11.9°C 50.0°F10.0°C 86% 0.9 mph NW1.4 kmh NW 2.7 mph4.3 kmh 30.09 in1019.0 mb 0.00 in0.0 mm 0.00 in0.0 mm 0.00 in0.0 mm
09:21 PM 53.8°F12.1°C 50.0°F10.0°C 85% 0.9 mph NW1.4 kmh NW 2.7 mph4.3 kmh 30.08 in1018.6 mb 0.00 in0.0 mm 0.00 in0.0 mm 0.00 in0.0 mm
09:16 PM 54.1°F12.3°C 50.0°F10.0°C 85% 0.9 mph NW1.4 kmh NW 2.7 mph4.3 kmh 30.08 in1018.6 mb 0.00 in0.0 mm 0.00 in0.0 mm 0.00 in0.0 mm
09:11 PM 54.1°F12.3°C 50.0°F10.0°C 84% 0.9 mph NW1.4 kmh NW 1.8 mph2.9 kmh 30.08 in1018.6 mb 0.00 in0.0 mm 0.00 in0.0 mm 0.00 in0.0 mm
09:06 PM 54.5°F12.5°C 50.0°F10.0°C 84% 0.9 mph NW1.4 kmh NW 1.8 mph2.9 kmh 30.08 in1018.6 mb 0.00 in0.0 mm 0.00 in0.0 mm 0.00 in0.0 mm
09:01 PM 54.5°F12.5°C 50.0°F10.0°C 84% 0.9 mph NW1.4 kmh NW 2.7 mph4.3 kmh 30.08 in1018.6 mb 0.00 in0.0 mm 0.00 in0.0 mm 0.00 in0.0 mm
08:56 PM 54.5°F12.5°C 50.0°F10.0°C 83% 1.8 mph W2.9 kmh W 3.6 mph5.8 kmh 30.08 in1018.6 mb 0.00 in0.0 mm 0.00 in0.0 mm 0.00 in0.0 mm
08:51 PM 54.1°F12.3°C 49.0°F9.4°C 83% 1.8 mph 2.9 kmh 2.7 mph4.3 kmh 30.08 in1018.6 mb 0.00 in0.0 mm 0.00 in0.0 mm 0.00 in0.0 mm
08:46 PM 54.3°F12.4°C 49.0°F9.4°C 83% 1.8 mph W2.9 kmh W 3.6 mph5.8 kmh 30.08 in1018.6 mb 0.00 in0.0 mm 0.00 in0.0 mm 0.00 in0.0 mm
08:41 PM 54.3°F12.4°C 49.0°F9.4°C 83% 1.8 mph NW2.9 kmh NW 4.5 mph7.2 kmh 30.08 in1018.6 mb 0.00 in0.0 mm 0.00 in0.0 mm 0.00 in0.0 mm
08:36 PM 54.3°F12.4°C 49.0°F9.4°C 83% 1.8 mph NW2.9 kmh NW 4.5 mph7.2 kmh 30.08 in1018.6 mb 0.00 in0.0 mm 0.00 in0.0 mm 0.00 in0.0 mm
08:31 PM 54.1°F12.3°C 49.0°F9.4°C 83% 3.6 mph NW5.8 kmh NW 5.4 mph8.7 kmh 30.08 in1018.6 mb 0.00 in0.0 mm 0.00 in0.0 mm 0.00 in0.0 mm
08:26 PM 54.3°F12.4°C 49.0°F9.4°C 83% 3.6 mph NW5.8 kmh NW 5.4 mph8.7 kmh 30.07 in1018.3 mb 0.00 in0.0 mm 0.00 in0.0 mm 0.00 in0.0 mm
08:21 PM 54.5°F12.5°C 50.0°F10.0°C 83% 3.6 mph NW5.8 kmh NW 6.3 mph10.1 kmh 30.08 in1018.6 mb 0.00 in0.0 mm 0.00 in0.0 mm 0.00 in0.0 mm
08:16 PM 54.7°F12.6°C 50.0°F10.0°C 83% 4.5 mph W7.2 kmh W 7.2 mph11.6 kmh 30.07 in1018.3 mb 0.00 in0.0 mm 0.00 in0.0 mm 0.00 in0.0 mm
08:11 PM 55.0°F12.8°C 50.0°F10.0°C 82% 4.5 mph NW7.2 kmh NW 7.8 mph12.6 kmh 30.07 in1018.3 mb 0.00 in0.0 mm 0.00 in0.0 mm 0.00 in0.0 mm
08:06 PM 55.2°F12.9°C 50.0°F10.0°C 81% 2.7 mph NW4.3 kmh NW 5.4 mph8.7 kmh 30.07 in1018.3 mb 0.00 in0.0 mm 0.00 in0.0 mm 0.00 in0.0 mm
08:01 PM 55.2°F12.9°C 50.0°F10.0°C 81% 2.7 mph NW4.3 kmh NW 5.4 mph8.7 kmh 30.07 in1018.3 mb 0.00 in0.0 mm 0.00 in0.0 mm 0.00 in0.0 mm
07:56 PM 55.2°F12.9°C 50.0°F10.0°C 81% 2.7 mph NW4.3 kmh NW 6.3 mph10.1 kmh 30.08 in1018.6 mb 0.00 in0.0 mm 0.00 in0.0 mm 0.00 in0.0 mm
07:51 PM 55.2°F12.9°C 50.0°F10.0°C 81% 3.6 mph NW5.8 kmh NW 7.2 mph11.6 kmh 30.08 in1018.6 mb 0.00 in0.0 mm 0.00 in0.0 mm 0.00 in0.0 mm
07:46 PM 55.2°F12.9°C 50.0°F10.0°C 81% 2.7 mph W4.3 kmh W 5.4 mph8.7 kmh 30.08 in1018.6 mb 0.00 in0.0 mm 0.00 in0.0 mm 0.00 in0.0 mm
07:41 PM 55.2°F12.9°C 50.0°F10.0°C 81% 3.6 mph NW5.8 kmh NW 7.8 mph12.6 kmh 30.08 in1018.6 mb 0.00 in0.0 mm 0.00 in0.0 mm 0.00 in0.0 mm
07:36 PM 55.4°F13.0°C 50.0°F10.0°C 81% 3.6 mph NW5.8 kmh NW 8.7 mph14.0 kmh 30.07 in1018.3 mb 0.00 in0.0 mm 0.00 in0.0 mm 0.00 in0.0 mm
07:31 PM 55.4°F13.0°C 50.0°F10.0°C 81% 3.6 mph 5.8 kmh 6.3 mph10.1 kmh 30.07 in1018.3 mb 0.00 in0.0 mm 0.00 in0.0 mm 0.00 in0.0 mm
07:26 PM 55.6°F13.1°C 50.0°F10.0°C 80% 3.6 mph NW5.8 kmh NW 6.3 mph10.1 kmh 30.07 in1018.3 mb 0.00 in0.0 mm 0.00 in0.0 mm 0.00 in0.0 mm
07:21 PM 55.4°F13.0°C 50.0°F10.0°C 81% 3.6 mph NW5.8 kmh NW 4.5 mph7.2 kmh 30.07 in1018.3 mb 0.00 in0.0 mm 0.00 in0.0 mm 0.00 in0.0 mm
07:16 PM 55.4°F13.0°C 50.0°F10.0°C 81% 2.7 mph NW4.3 kmh NW 6.3 mph10.1 kmh 30.07 in1018.3 mb 0.00 in0.0 mm 0.00 in0.0 mm 0.00 in0.0 mm
07:11 PM 55.4°F13.0°C 50.0°F10.0°C 80% 2.7 mph NW4.3 kmh NW 5.4 mph8.7 kmh 30.07 in1018.3 mb 0.00 in0.0 mm 0.00 in0.0 mm 0.00 in0.0 mm
07:06 PM 55.6°F13.1°C 50.0°F10.0°C 80% 2.7 mph NW4.3 kmh NW 5.4 mph8.7 kmh 30.07 in1018.3 mb 0.00 in0.0 mm 0.00 in0.0 mm 0.00 in0.0 mm
07:01 PM 55.8°F13.2°C 50.0°F10.0°C 80% 2.7 mph NW4.3 kmh NW 5.4 mph8.7 kmh 30.07 in1018.3 mb 0.00 in0.0 mm 0.00 in0.0 mm 0.00 in0.0 mm
06:56 PM 55.8°F13.2°C 50.0°F10.0°C 80% 3.6 mph NW5.8 kmh NW 7.8 mph12.6 kmh 30.07 in1018.3 mb 0.00 in0.0 mm 0.00 in0.0 mm 0.00 in0.0 mm
06:51 PM 55.8°F13.2°C 50.0°F10.0°C 80% 2.7 mph NW4.3 kmh NW 7.2 mph11.6 kmh 30.07 in1018.3 mb 0.00 in0.0 mm 0.00 in0.0 mm 0.00 in0.0 mm
06:46 PM 55.9°F13.3°C 50.0°F10.0°C 80% 2.7 mph W4.3 kmh W 5.4 mph8.7 kmh 30.07 in1018.3 mb 0.00 in0.0 mm 0.00 in0.0 mm 0.00 in0.0 mm
06:41 PM 55.8°F13.2°C 50.0°F10.0°C 80% 3.6 mph NW5.8 kmh NW 8.7 mph14.0 kmh 30.06 in1017.9 mb 0.00 in0.0 mm 0.00 in0.0 mm 0.00 in0.0 mm
06:36 PM 55.9°F13.3°C 50.0°F10.0°C 80% 2.7 mph NW4.3 kmh NW 5.4 mph8.7 kmh 30.06 in1017.9 mb 0.00 in0.0 mm 0.00 in0.0 mm 0.00 in0.0 mm
06:31 PM 55.9°F13.3°C 50.0°F10.0°C 80% 2.7 mph NW4.3 kmh NW 5.4 mph8.7 kmh 30.07 in1018.3 mb 0.00 in0.0 mm 0.00 in0.0 mm 0.00 in0.0 mm
06:26 PM 55.9°F13.3°C 50.0°F10.0°C 80% 1.8 mph NW2.9 kmh NW 4.5 mph7.2 kmh 30.07 in1018.3 mb 0.00 in0.0 mm 0.00 in0.0 mm 0.00 in0.0 mm
06:21 PM 56.3°F13.5°C 50.0°F10.0°C 79% 2.7 mph 4.3 kmh 5.4 mph8.7 kmh 30.06 in1017.9 mb 0.00 in0.0 mm 0.00 in0.0 mm 0.00 in0.0 mm
06:16 PM 56.1°F13.4°C 50.0°F10.0°C 79% 1.8 mph NW2.9 kmh NW 3.6 mph5.8 kmh 30.07 in1018.3 mb 0.00 in0.0 mm 0.00 in0.0 mm 0.00 in0.0 mm
06:11 PM 56.3°F13.5°C 50.0°F10.0°C 80% 1.8 mph NW2.9 kmh NW 4.5 mph7.2 kmh 30.06 in1017.9 mb 0.00 in0.0 mm 0.00 in0.0 mm 0.00 in0.0 mm
06:06 PM 56.3°F13.5°C 50.0°F10.0°C 79% 2.7 mph NW4.3 kmh NW 4.5 mph7.2 kmh 30.06 in1017.9 mb 0.00 in0.0 mm 0.00 in0.0 mm 0.00 in0.0 mm
06:01 PM 56.5°F13.6°C 50.0°F10.0°C 79% 1.8 mph NW2.9 kmh NW 4.5 mph7.2 kmh 30.06 in1017.9 mb 0.00 in0.0 mm 0.00 in0.0 mm 0.00 in0.0 mm
05:56 PM 56.5°F13.6°C 50.0°F10.0°C 79% 1.8 mph NW2.9 kmh NW 3.6 mph5.8 kmh 30.06 in1017.9 mb 0.00 in0.0 mm 0.00 in0.0 mm 0.00 in0.0 mm
05:51 PM 56.7°F13.7°C 50.0°F10.0°C 79% 1.8 mph NW2.9 kmh NW 3.6 mph5.8 kmh 30.06 in1017.9 mb 0.00 in0.0 mm 0.00 in0.0 mm 0.00 in0.0 mm
05:46 PM 57.0°F13.9°C 50.0°F10.0°C 78% 1.8 mph NW2.9 kmh NW 5.4 mph8.7 kmh 30.06 in1017.9 mb 0.00 in0.0 mm 0.00 in0.0 mm 0.00 in0.0 mm
05:41 PM 57.4°F14.1°C 51.0°F10.6°C 79% 2.7 mph NW4.3 kmh NW 4.5 mph7.2 kmh 30.06 in1017.9 mb 0.00 in0.0 mm 0.00 in0.0 mm 0.00 in0.0 mm
05:36 PM 57.4°F14.1°C 51.0°F10.6°C 78% 2.7 mph NW4.3 kmh NW 5.4 mph8.7 kmh 30.06 in1017.9 mb 0.00 in0.0 mm 0.00 in0.0 mm 0.00 in0.0 mm
05:31 PM 57.4°F14.1°C 51.0°F10.6°C 78% 2.7 mph NW4.3 kmh NW 3.6 mph5.8 kmh 30.06 in1017.9 mb 0.00 in0.0 mm 0.00 in0.0 mm 0.00 in0.0 mm
05:26 PM 57.7°F14.3°C 51.0°F10.6°C 77% 2.7 mph NW4.3 kmh NW 4.5 mph7.2 kmh 30.06 in1017.9 mb 0.00 in0.0 mm 0.00 in0.0 mm 0.00 in0.0 mm
05:21 PM 57.9°F14.4°C 51.0°F10.6°C 76% 2.7 mph W4.3 kmh W 5.4 mph8.7 kmh 30.06 in1017.9 mb 0.00 in0.0 mm 0.00 in0.0 mm 0.00 in0.0 mm
05:16 PM 58.1°F14.5°C 50.0°F10.0°C 75% 2.7 mph NW4.3 kmh NW 4.5 mph7.2 kmh 30.06 in1017.9 mb 0.00 in0.0 mm 0.00 in0.0 mm 0.00 in0.0 mm
05:11 PM 58.3°F14.6°C 51.0°F10.6°C 75% 2.7 mph 4.3 kmh 5.4 mph8.7 kmh 30.06 in1017.9 mb 0.00 in0.0 mm 0.00 in0.0 mm 0.00 in0.0 mm
05:06 PM 58.6°F14.8°C 51.0°F10.6°C 74% 3.6 mph NW5.8 kmh NW 5.4 mph8.7 kmh 30.06 in1017.9 mb 0.00 in0.0 mm 0.00 in0.0 mm 0.00 in0.0 mm
05:01 PM 58.6°F14.8°C 51.0°F10.6°C 75% 3.6 mph NW5.8 kmh NW 7.8 mph12.6 kmh 30.06 in1017.9 mb 0.00 in0.0 mm 0.00 in0.0 mm 0.00 in0.0 mm
04:56 PM 58.5°F14.7°C 51.0°F10.6°C 75% 4.5 mph NW7.2 kmh NW 7.2 mph11.6 kmh 30.06 in1017.9 mb 0.00 in0.0 mm 0.00 in0.0 mm 0.00 in0.0 mm
04:51 PM 58.8°F14.9°C 51.0°F10.6°C 74% 2.7 mph NW4.3 kmh NW 5.4 mph8.7 kmh 30.06 in1017.9 mb 0.00 in0.0 mm 0.00 in0.0 mm 0.00 in0.0 mm
04:46 PM 59.2°F15.1°C 51.0°F10.6°C 73% 2.7 mph NW4.3 kmh NW 4.5 mph7.2 kmh 30.06 in1017.9 mb 0.00 in0.0 mm 0.00 in0.0 mm 0.00 in0.0 mm
04:41 PM 59.7°F15.4°C 52.0°F11.1°C 76% 1.8 mph NW2.9 kmh NW 3.6 mph5.8 kmh 30.06 in1017.9 mb 0.00 in0.0 mm 0.00 in0.0 mm 0.00 in0.0 mm
04:36 PM 59.5°F15.3°C 52.0°F11.1°C 75% 1.8 mph NW2.9 kmh NW 4.5 mph7.2 kmh 30.06 in1017.9 mb 0.00 in0.0 mm 0.00 in0.0 mm 0.00 in0.0 mm
04:31 PM 59.7°F15.4°C 52.0°F11.1°C 75% 0.9 mph NW1.4 kmh NW 2.7 mph4.3 kmh 30.06 in1017.9 mb 0.00 in0.0 mm 0.00 in0.0 mm 0.00 in0.0 mm
04:26 PM 59.7°F15.4°C 52.0°F11.1°C 75% 0.9 mph W1.4 kmh W 2.7 mph4.3 kmh 30.06 in1017.9 mb 0.00 in0.0 mm 0.00 in0.0 mm 0.00 in0.0 mm
04:21 PM 59.5°F15.3°C 52.0°F11.1°C 75% 1.8 mph NW2.9 kmh NW 3.6 mph5.8 kmh 30.06 in1017.9 mb 0.00 in0.0 mm 0.00 in0.0 mm 0.00 in0.0 mm
04:16 PM 59.5°F15.3°C 52.0°F11.1°C 76% 1.8 mph NW2.9 kmh NW 4.5 mph7.2 kmh 30.06 in1017.9 mb 0.00 in0.0 mm 0.00 in0.0 mm 0.00 in0.0 mm
04:11 PM 59.7°F15.4°C 52.0°F11.1°C 75% 0.9 mph NW1.4 kmh NW 2.7 mph4.3 kmh 30.06 in1017.9 mb 0.00 in0.0 mm 0.00 in0.0 mm 0.00 in0.0 mm
04:06 PM 59.4°F15.2°C 51.0°F10.6°C 74% 1.8 mph NW2.9 kmh NW 3.6 mph5.8 kmh 30.06 in1017.9 mb 0.00 in0.0 mm 0.00 in0.0 mm 0.00 in0.0 mm
04:01 PM 59.5°F15.3°C 52.0°F11.1°C 75% 1.8 mph 2.9 kmh 3.6 mph5.8 kmh 30.06 in1017.9 mb 0.00 in0.0 mm 0.00 in0.0 mm 0.00 in0.0 mm
03:56 PM 59.4°F15.2°C 52.0°F11.1°C 75% 1.8 mph NW2.9 kmh NW 3.6 mph5.8 kmh 30.06 in1017.9 mb 0.00 in0.0 mm 0.00 in0.0 mm 0.00 in0.0 mm
03:51 PM 59.4°F15.2°C 52.0°F11.1°C 75% 2.7 mph NW4.3 kmh NW 4.5 mph7.2 kmh 30.06 in1017.9 mb 0.00 in0.0 mm 0.00 in0.0 mm 0.00 in0.0 mm
03:46 PM 59.4°F15.2°C 52.0°F11.1°C 75% 2.7 mph NW4.3 kmh NW 4.5 mph7.2 kmh 30.06 in1017.9 mb 0.00 in0.0 mm 0.00 in0.0 mm 0.00 in0.0 mm
03:41 PM 59.4°F15.2°C 51.0°F10.6°C 74% 0.9 mph NW1.4 kmh NW 3.6 mph5.8 kmh 30.06 in1017.9 mb 0.00 in0.0 mm 0.00 in0.0 mm 0.00 in0.0 mm
03:36 PM 59.4°F15.2°C 51.0°F10.6°C 73% 1.8 mph 2.9 kmh 2.7 mph4.3 kmh 30.06 in1017.9 mb 0.00 in0.0 mm 0.00 in0.0 mm 0.00 in0.0 mm
03:31 PM 59.2°F15.1°C 51.0°F10.6°C 73% 1.8 mph W2.9 kmh W 4.5 mph7.2 kmh 30.06 in1017.9 mb 0.00 in0.0 mm 0.00 in0.0 mm 0.00 in0.0 mm
03:26 PM 59.5°F15.3°C 51.0°F10.6°C 74% 1.8 mph NW2.9 kmh NW 3.6 mph5.8 kmh 30.06 in1017.9 mb 0.00 in0.0 mm 0.00 in0.0 mm 0.00 in0.0 mm
03:21 PM 59.4°F15.2°C 51.0°F10.6°C 73% 2.7 mph NW4.3 kmh NW 5.4 mph8.7 kmh 30.06 in1017.9 mb 0.00 in0.0 mm 0.00 in0.0 mm 0.00 in0.0 mm
03:16 PM 59.5°F15.3°C 51.0°F10.6°C 73% 1.8 mph 2.9 kmh 4.5 mph7.2 kmh 30.06 in1017.9 mb 0.00 in0.0 mm 0.00 in0.0 mm 0.00 in0.0 mm
03:11 PM 59.4°F15.2°C 51.0°F10.6°C 72% 2.7 mph 4.3 kmh 4.5 mph7.2 kmh 30.06 in1017.9 mb 0.00 in0.0 mm 0.00 in0.0 mm 0.00 in0.0 mm
03:06 PM 59.0°F15.0°C 50.0°F10.0°C 72% 3.6 mph NW5.8 kmh NW 7.8 mph12.6 kmh 30.06 in1017.9 mb 0.00 in0.0 mm 0.00 in0.0 mm 0.00 in0.0 mm
03:01 PM 59.2°F15.1°C 50.0°F10.0°C 72% 2.7 mph 4.3 kmh 6.3 mph10.1 kmh 30.06 in1017.9 mb 0.00 in0.0 mm 0.00 in0.0 mm 0.00 in0.0 mm
02:56 PM 59.2°F15.1°C 51.0°F10.6°C 73% 2.7 mph NW4.3 kmh NW 7.2 mph11.6 kmh 30.06 in1017.9 mb 0.00 in0.0 mm 0.00 in0.0 mm 0.00 in0.0 mm
02:51 PM 59.7°F15.4°C 52.0°F11.1°C 75% 2.7 mph NW4.3 kmh NW 6.3 mph10.1 kmh 30.06 in1017.9 mb 0.00 in0.0 mm 0.00 in0.0 mm 0.00 in0.0 mm
02:46 PM 59.7°F15.4°C 51.0°F10.6°C 73% 2.7 mph NW4.3 kmh NW 5.4 mph8.7 kmh 30.06 in1017.9 mb 0.00 in0.0 mm 0.00 in0.0 mm 0.00 in0.0 mm
02:41 PM 60.1°F15.6°C 52.0°F11.1°C 74% 1.8 mph NW2.9 kmh NW 4.5 mph7.2 kmh 30.06 in1017.9 mb 0.00 in0.0 mm 0.00 in0.0 mm 0.00 in0.0 mm
02:36 PM 59.2°F15.1°C 51.0°F10.6°C 74% 1.8 mph W2.9 kmh W 4.5 mph7.2 kmh 30.06 in1017.9 mb 0.00 in0.0 mm 0.00 in0.0 mm 0.00 in0.0 mm
02:31 PM 59.4°F15.2°C 51.0°F10.6°C 73% 1.8 mph NW2.9 kmh NW 4.5 mph7.2 kmh 30.06 in1017.9 mb 0.00 in0.0 mm 0.00 in0.0 mm 0.00 in0.0 mm
02:26 PM 59.2°F15.1°C 51.0°F10.6°C 74% 2.7 mph NW4.3 kmh NW 4.5 mph7.2 kmh 30.07 in1018.3 mb 0.00 in0.0 mm 0.00 in0.0 mm 0.00 in0.0 mm
02:21 PM 58.8°F14.9°C 50.0°F10.0°C 73% 2.7 mph NW4.3 kmh NW 4.5 mph7.2 kmh 30.07 in1018.3 mb 0.00 in0.0 mm 0.00 in0.0 mm 0.00 in0.0 mm
02:16 PM 58.8°F14.9°C 50.0°F10.0°C 73% 2.7 mph NW4.3 kmh NW 5.4 mph8.7 kmh 30.07 in1018.3 mb 0.00 in0.0 mm 0.00 in0.0 mm 0.00 in0.0 mm
02:11 PM 58.5°F14.7°C 50.0°F10.0°C 73% 4.5 mph NW7.2 kmh NW 8.7 mph14.0 kmh 30.07 in1018.3 mb 0.00 in0.0 mm 0.00 in0.0 mm 0.00 in0.0 mm
02:06 PM 58.6°F14.8°C 51.0°F10.6°C 74% 4.5 mph 7.2 kmh 7.2 mph11.6 kmh 30.07 in1018.3 mb 0.00 in0.0 mm 0.00 in0.0 mm 0.00 in0.0 mm
02:01 PM 59.0°F15.0°C 51.0°F10.6°C 74% 2.7 mph W4.3 kmh W 6.3 mph10.1 kmh 30.06 in1017.9 mb 0.00 in0.0 mm 0.00 in0.0 mm 0.00 in0.0 mm
01:56 PM 58.8°F14.9°C 51.0°F10.6°C 75% 3.6 mph NW5.8 kmh NW 7.8 mph12.6 kmh 30.06 in1017.9 mb 0.00 in0.0 mm 0.00 in0.0 mm 0.00 in0.0 mm
01:51 PM 58.5°F14.7°C 50.0°F10.0°C 73% 4.5 mph NW7.2 kmh NW 7.2 mph11.6 kmh 30.07 in1018.3 mb 0.00 in0.0 mm 0.00 in0.0 mm 0.00 in0.0 mm
01:46 PM 59.2°F15.1°C 51.0°F10.6°C 75% 4.5 mph NW7.2 kmh NW 8.7 mph14.0 kmh 30.06 in1017.9 mb 0.00 in0.0 mm 0.00 in0.0 mm 0.00 in0.0 mm
01:41 PM 59.5°F15.3°C 52.0°F11.1°C 76% 2.7 mph NW4.3 kmh NW 6.3 mph10.1 kmh 30.07 in1018.3 mb 0.00 in0.0 mm 0.00 in0.0 mm 0.00 in0.0 mm
01:36 PM 59.7°F15.4°C 52.0°F11.1°C 75% 1.8 mph NW2.9 kmh NW 4.5 mph7.2 kmh 30.06 in1017.9 mb 0.00 in0.0 mm 0.00 in0.0 mm 0.00 in0.0 mm
01:31 PM 60.1°F15.6°C 53.0°F11.7°C 76% 2.7 mph NW4.3 kmh NW 5.4 mph8.7 kmh 30.06 in1017.9 mb 0.00 in0.0 mm 0.00 in0.0 mm 0.00 in0.0 mm
01:26 PM 59.5°F15.3°C 52.0°F11.1°C 76% 2.7 mph 4.3 kmh 4.5 mph7.2 kmh 30.07 in1018.3 mb 0.00 in0.0 mm 0.00 in0.0 mm 0.00 in0.0 mm
01:21 PM 59.4°F15.2°C 52.0°F11.1°C 76% 2.7 mph NW4.3 kmh NW 5.4 mph8.7 kmh 30.07 in1018.3 mb 0.00 in0.0 mm 0.00 in0.0 mm 0.00 in0.0 mm
01:16 PM 59.2°F15.1°C 51.0°F10.6°C 75% 2.7 mph W4.3 kmh W 6.3 mph10.1 kmh 30.07 in1018.3 mb 0.00 in0.0 mm 0.00 in0.0 mm 0.00 in0.0 mm
01:11 PM 59.9°F15.5°C 53.0°F11.7°C 76% 2.7 mph NW4.3 kmh NW 5.4 mph8.7 kmh 30.08 in1018.6 mb 0.00 in0.0 mm 0.00 in0.0 mm 0.00 in0.0 mm
01:06 PM 58.6°F14.8°C 51.0°F10.6°C 76% 1.8 mph NW2.9 kmh NW 5.4 mph8.7 kmh 30.08 in1018.6 mb 0.00 in0.0 mm 0.00 in0.0 mm 0.00 in0.0 mm
01:01 PM 58.5°F14.7°C 51.0°F10.6°C 75% 1.8 mph NW2.9 kmh NW 5.4 mph8.7 kmh 30.08 in1018.6 mb 0.00 in0.0 mm 0.00 in0.0 mm 0.00 in0.0 mm
12:56 PM 58.5°F14.7°C 51.0°F10.6°C 76% 1.8 mph NW2.9 kmh NW 5.4 mph8.7 kmh 30.08 in1018.6 mb 0.00 in0.0 mm 0.00 in0.0 mm 0.00 in0.0 mm
12:51 PM 57.9°F14.4°C 51.0°F10.6°C 77% 2.7 mph NW4.3 kmh NW 4.5 mph7.2 kmh 30.08 in1018.6 mb 0.00 in0.0 mm 0.00 in0.0 mm 0.00 in0.0 mm
12:46 PM 57.9°F14.4°C 51.0°F10.6°C 77% 3.6 mph NW5.8 kmh NW 6.3 mph10.1 kmh 30.08 in1018.6 mb 0.00 in0.0 mm 0.00 in0.0 mm 0.00 in0.0 mm
12:41 PM 58.3°F14.6°C 51.0°F10.6°C 75% 3.6 mph NW5.8 kmh NW 7.8 mph12.6 kmh 30.08 in1018.6 mb 0.00 in0.0 mm 0.00 in0.0 mm 0.00 in0.0 mm
12:36 PM 58.3°F14.6°C 51.0°F10.6°C 76% 2.7 mph NW4.3 kmh NW 7.2 mph11.6 kmh 30.08 in1018.6 mb 0.00 in0.0 mm 0.00 in0.0 mm 0.00 in0.0 mm
12:31 PM 58.3°F14.6°C 51.0°F10.6°C 76% 2.7 mph NW4.3 kmh NW 7.2 mph11.6 kmh 30.08 in1018.6 mb 0.00 in0.0 mm 0.00 in0.0 mm 0.00 in0.0 mm
12:26 PM 58.6°F14.8°C 52.0°F11.1°C 77% 1.8 mph W2.9 kmh W 4.5 mph7.2 kmh 30.08 in1018.6 mb 0.00 in0.0 mm 0.00 in0.0 mm 0.00 in0.0 mm
12:21 PM 57.4°F14.1°C 51.0°F10.6°C 78% 1.8 mph NW2.9 kmh NW 5.4 mph8.7 kmh 30.08 in1018.6 mb 0.00 in0.0 mm 0.00 in0.0 mm 0.00 in0.0 mm
12:16 PM 57.2°F14.0°C 51.0°F10.6°C 79% 3.6 mph W5.8 kmh W 5.4 mph8.7 kmh 30.09 in1019.0 mb 0.00 in0.0 mm 0.00 in0.0 mm 0.00 in0.0 mm
12:11 PM 57.0°F13.9°C 51.0°F10.6°C 79% 3.6 mph NW5.8 kmh NW 7.8 mph12.6 kmh 30.08 in1018.6 mb 0.00 in0.0 mm 0.00 in0.0 mm 0.00 in0.0 mm
12:06 PM 57.0°F13.9°C 51.0°F10.6°C 79% 3.6 mph W5.8 kmh W 8.7 mph14.0 kmh 30.08 in1018.6 mb 0.00 in0.0 mm 0.00 in0.0 mm 0.00 in0.0 mm
12:01 PM 57.0°F13.9°C 50.0°F10.0°C 78% 3.6 mph 5.8 kmh 7.2 mph11.6 kmh 30.09 in1019.0 mb 0.00 in0.0 mm 0.00 in0.0 mm 0.00 in0.0 mm
11:56 AM 57.2°F14.0°C 51.0°F10.6°C 78% 6.3 mph W10.1 kmh W 9.6 mph15.4 kmh 30.09 in1019.0 mb 0.00 in0.0 mm 0.00 in0.0 mm 0.00 in0.0 mm
11:51 AM 58.1°F14.5°C 51.0°F10.6°C 78% 3.6 mph NW5.8 kmh NW 7.2 mph11.6 kmh 30.09 in1019.0 mb 0.00 in0.0 mm 0.00 in0.0 mm 0.00 in0.0 mm
11:46 AM 58.6°F14.8°C 51.0°F10.6°C 76% 5.4 mph NW8.7 kmh NW 10.5 mph16.9 kmh 30.09 in1019.0 mb 0.00 in0.0 mm 0.00 in0.0 mm 0.00 in0.0 mm
11:41 AM 58.6°F14.8°C 51.0°F10.6°C 74% 4.5 mph NW7.2 kmh NW 8.7 mph14.0 kmh 30.09 in1019.0 mb 0.00 in0.0 mm 0.00 in0.0 mm 0.00 in0.0 mm
11:36 AM 58.3°F14.6°C 51.0°F10.6°C 77% 3.6 mph NW5.8 kmh NW 7.2 mph11.6 kmh 30.09 in1019.0 mb 0.00 in0.0 mm 0.00 in0.0 mm 0.00 in0.0 mm
11:31 AM 58.1°F14.5°C 50.0°F10.0°C 75% 4.5 mph NW7.2 kmh NW 7.8 mph12.6 kmh 30.09 in1019.0 mb 0.00 in0.0 mm 0.00 in0.0 mm 0.00 in0.0 mm
11:26 AM 58.3°F14.6°C 51.0°F10.6°C 77% 3.6 mph NW5.8 kmh NW 7.8 mph12.6 kmh 30.09 in1019.0 mb 0.00 in0.0 mm 0.00 in0.0 mm 0.00 in0.0 mm
11:21 AM 58.5°F14.7°C 53.0°F11.7°C 80% 4.5 mph W7.2 kmh W 8.7 mph14.0 kmh 30.09 in1019.0 mb 0.00 in0.0 mm 0.00 in0.0 mm 0.00 in0.0 mm
11:16 AM 57.7°F14.3°C 51.0°F10.6°C 79% 3.6 mph NW5.8 kmh NW 6.3 mph10.1 kmh 30.09 in1019.0 mb 0.00 in0.0 mm 0.00 in0.0 mm 0.00 in0.0 mm
11:11 AM 57.7°F14.3°C 52.0°F11.1°C 81% 3.6 mph NW5.8 kmh NW 6.3 mph10.1 kmh 30.09 in1019.0 mb 0.00 in0.0 mm 0.00 in0.0 mm 0.00 in0.0 mm
11:06 AM 56.8°F13.8°C 51.0°F10.6°C 81% 2.7 mph NW4.3 kmh NW 5.4 mph8.7 kmh 30.09 in1019.0 mb 0.00 in0.0 mm 0.00 in0.0 mm 0.00 in0.0 mm
11:01 AM 57.2°F14.0°C 52.0°F11.1°C 82% 2.7 mph W4.3 kmh W 3.6 mph5.8 kmh 30.10 in1019.3 mb 0.00 in0.0 mm 0.00 in0.0 mm 0.00 in0.0 mm
10:56 AM 56.8°F13.8°C 52.0°F11.1°C 83% 2.7 mph NW4.3 kmh NW 5.4 mph8.7 kmh 30.10 in1019.3 mb 0.00 in0.0 mm 0.00 in0.0 mm 0.00 in0.0 mm
10:51 AM 56.7°F13.7°C 51.0°F10.6°C 82% 2.7 mph NW4.3 kmh NW 4.5 mph7.2 kmh 30.10 in1019.3 mb 0.00 in0.0 mm 0.00 in0.0 mm 0.00 in0.0 mm
10:46 AM 56.5°F13.6°C 52.0°F11.1°C 83% 2.7 mph NW4.3 kmh NW 4.5 mph7.2 kmh 30.10 in1019.3 mb 0.00 in0.0 mm 0.00 in0.0 mm 0.00 in0.0 mm
10:41 AM 55.9°F13.3°C 51.0°F10.6°C 84% 3.6 mph NW5.8 kmh NW 5.4 mph8.7 kmh 30.10 in1019.3 mb 0.00 in0.0 mm 0.00 in0.0 mm 0.00 in0.0 mm
10:36 AM 55.6°F13.1°C 51.0°F10.6°C 84% 3.6 mph NW5.8 kmh NW 6.3 mph10.1 kmh 30.10 in1019.3 mb 0.00 in0.0 mm 0.00 in0.0 mm 0.00 in0.0 mm
10:31 AM 54.7°F12.6°C 50.0°F10.0°C 85% 5.4 mph W8.7 kmh W 7.2 mph11.6 kmh 30.10 in1019.3 mb 0.00 in0.0 mm 0.00 in0.0 mm 0.00 in0.0 mm
10:26 AM 54.1°F12.3°C 50.0°F10.0°C 86% 4.5 mph W7.2 kmh W 6.3 mph10.1 kmh 30.11 in1019.6 mb 0.00 in0.0 mm 0.00 in0.0 mm 0.00 in0.0 mm
10:21 AM 53.8°F12.1°C 50.0°F10.0°C 86% 4.5 mph W7.2 kmh W 6.3 mph10.1 kmh 30.11 in1019.6 mb 0.00 in0.0 mm 0.00 in0.0 mm 0.00 in0.0 mm
10:16 AM 53.4°F11.9°C 50.0°F10.0°C 86% 4.5 mph W7.2 kmh W 7.2 mph11.6 kmh 30.11 in1019.6 mb 0.00 in0.0 mm 0.00 in0.0 mm 0.00 in0.0 mm
10:11 AM 53.6°F12.0°C 49.0°F9.4°C 85% 3.6 mph NW5.8 kmh NW 6.3 mph10.1 kmh 30.11 in1019.6 mb 0.00 in0.0 mm 0.00 in0.0 mm 0.00 in0.0 mm
10:06 AM 53.4°F11.9°C 49.0°F9.4°C 85% 2.7 mph W4.3 kmh W 4.5 mph7.2 kmh 30.12 in1020.0 mb 0.00 in0.0 mm 0.00 in0.0 mm 0.00 in0.0 mm
10:01 AM 53.4°F11.9°C 49.0°F9.4°C 85% 1.8 mph W2.9 kmh W 3.6 mph5.8 kmh 30.12 in1020.0 mb 0.00 in0.0 mm 0.00 in0.0 mm 0.00 in0.0 mm
09:56 AM 52.7°F11.5°C 48.0°F8.9°C 84% 1.8 mph NW2.9 kmh NW 4.5 mph7.2 kmh 30.12 in1020.0 mb 0.00 in0.0 mm 0.00 in0.0 mm 0.00 in0.0 mm
09:51 AM 52.9°F11.6°C 49.0°F9.4°C 85% 2.7 mph NW4.3 kmh NW 4.5 mph7.2 kmh 30.12 in1020.0 mb 0.00 in0.0 mm 0.00 in0.0 mm 0.00 in0.0 mm
09:46 AM 52.3°F11.3°C 48.0°F8.9°C 85% 2.7 mph W4.3 kmh W 4.5 mph7.2 kmh 30.12 in1020.0 mb 0.00 in0.0 mm 0.00 in0.0 mm 0.00 in0.0 mm
09:41 AM 52.7°F11.5°C 49.0°F9.4°C 85% 2.7 mph NW4.3 kmh NW 5.4 mph8.7 kmh 30.12 in1020.0 mb 0.00 in0.0 mm 0.00 in0.0 mm 0.00 in0.0 mm
09:36 AM 52.5°F11.4°C 49.0°F9.4°C 86% 3.6 mph W5.8 kmh W 6.3 mph10.1 kmh 30.13 in1020.3 mb 0.00 in0.0 mm 0.00 in0.0 mm 0.00 in0.0 mm
09:31 AM 52.3°F11.3°C 48.0°F8.9°C 86% 4.5 mph W7.2 kmh W 6.3 mph10.1 kmh 30.12 in1020.0 mb 0.00 in0.0 mm 0.00 in0.0 mm 0.00 in0.0 mm
09:26 AM 52.3°F11.3°C 48.0°F8.9°C 86% 5.4 mph NW8.7 kmh NW 7.2 mph11.6 kmh 30.12 in1020.0 mb 0.00 in0.0 mm 0.00 in0.0 mm 0.00 in0.0 mm
09:21 AM 52.9°F11.6°C 49.0°F9.4°C 86% 4.5 mph NW7.2 kmh NW 7.2 mph11.6 kmh 30.11 in1019.6 mb 0.00 in0.0 mm 0.00 in0.0 mm 0.00 in0.0 mm
09:16 AM 52.9°F11.6°C 49.0°F9.4°C 86% 4.5 mph NW7.2 kmh NW 6.3 mph10.1 kmh 30.11 in1019.6 mb 0.00 in0.0 mm 0.00 in0.0 mm 0.00 in0.0 mm
09:11 AM 53.4°F11.9°C 50.0°F10.0°C 86% 4.5 mph NW7.2 kmh NW 6.3 mph10.1 kmh 30.11 in1019.6 mb 0.00 in0.0 mm 0.00 in0.0 mm 0.00 in0.0 mm
09:06 AM 53.8°F12.1°C 50.0°F10.0°C 85% 4.5 mph W7.2 kmh W 6.3 mph10.1 kmh 30.11 in1019.6 mb 0.00 in0.0 mm 0.00 in0.0 mm 0.00 in0.0 mm
09:01 AM 54.1°F12.3°C 50.0°F10.0°C 86% 3.6 mph SW5.8 kmh SW 6.3 mph10.1 kmh 30.12 in1020.0 mb 0.00 in0.0 mm 0.00 in0.0 mm 0.00 in0.0 mm
08:56 AM 54.1°F12.3°C 50.0°F10.0°C 86% 4.5 mph SW7.2 kmh SW 7.2 mph11.6 kmh 30.11 in1019.6 mb 0.00 in0.0 mm 0.00 in0.0 mm 0.00 in0.0 mm
08:51 AM 53.4°F11.9°C 50.0°F10.0°C 86% 2.7 mph W4.3 kmh W 4.5 mph7.2 kmh 30.12 in1020.0 mb 0.00 in0.0 mm 0.00 in0.0 mm 0.00 in0.0 mm
08:46 AM 52.3°F11.3°C 48.0°F8.9°C 86% 2.7 mph NW4.3 kmh NW 4.5 mph7.2 kmh 30.12 in1020.0 mb 0.00 in0.0 mm 0.00 in0.0 mm 0.00 in0.0 mm
08:41 AM 51.8°F11.0°C 48.0°F8.9°C 87% 4.5 mph NW7.2 kmh NW 5.4 mph8.7 kmh 30.13 in1020.3 mb 0.00 in0.0 mm 0.00 in0.0 mm 0.00 in0.0 mm
08:36 AM 51.4°F10.8°C 48.0°F8.9°C 87% 2.7 mph NW4.3 kmh NW 4.5 mph7.2 kmh 30.13 in1020.3 mb 0.00 in0.0 mm 0.00 in0.0 mm 0.00 in0.0 mm
08:31 AM 51.6°F10.9°C 48.0°F8.9°C 87% 2.7 mph W4.3 kmh W 4.5 mph7.2 kmh 30.12 in1020.0 mb 0.00 in0.0 mm 0.00 in0.0 mm 0.00 in0.0 mm
08:26 AM 51.1°F10.6°C 48.0°F8.9°C 87% 2.7 mph W4.3 kmh W 4.5 mph7.2 kmh 30.12 in1020.0 mb 0.00 in0.0 mm 0.00 in0.0 mm 0.00 in0.0 mm
08:21 AM 50.5°F10.3°C 47.0°F8.3°C 87% 2.7 mph W4.3 kmh W 5.4 mph8.7 kmh 30.12 in1020.0 mb 0.00 in0.0 mm 0.00 in0.0 mm 0.00 in0.0 mm
08:16 AM 50.0°F10.0°C 46.0°F7.8°C 87% 1.8 mph NW2.9 kmh NW 4.5 mph7.2 kmh 30.12 in1020.0 mb 0.00 in0.0 mm 0.00 in0.0 mm 0.00 in0.0 mm
08:11 AM 49.5°F9.7°C 46.0°F7.8°C 87% 1.8 mph W2.9 kmh W 3.6 mph5.8 kmh 30.12 in1020.0 mb 0.00 in0.0 mm 0.00 in0.0 mm 0.00 in0.0 mm
08:06 AM 50.7°F10.4°C 47.0°F8.3°C 85% 1.8 mph NW2.9 kmh NW 3.6 mph5.8 kmh 30.12 in1020.0 mb 0.00 in0.0 mm 0.00 in0.0 mm 0.00 in0.0 mm
08:01 AM 49.3°F9.6°C 46.0°F7.8°C 88% 2.7 mph W4.3 kmh W 4.5 mph7.2 kmh 30.11 in1019.6 mb 0.00 in0.0 mm 0.00 in0.0 mm 0.00 in0.0 mm
07:56 AM 47.8°F8.8°C 45.0°F7.2°C 89% 2.7 mph W4.3 kmh W 5.4 mph8.7 kmh 30.12 in1020.0 mb 0.00 in0.0 mm 0.00 in0.0 mm 0.00 in0.0 mm
07:51 AM 47.5°F8.6°C 45.0°F7.2°C 89% 2.7 mph NW4.3 kmh NW 5.4 mph8.7 kmh 30.12 in1020.0 mb 0.00 in0.0 mm 0.00 in0.0 mm 0.00 in0.0 mm
07:46 AM 47.8°F8.8°C 44.0°F6.7°C 87% 1.8 mph NW2.9 kmh NW 2.7 mph4.3 kmh 30.11 in1019.6 mb 0.00 in0.0 mm 0.00 in0.0 mm 0.00 in0.0 mm
07:41 AM 47.1°F8.4°C 44.0°F6.7°C 89% 1.8 mph W2.9 kmh W 2.7 mph4.3 kmh 30.11 in1019.6 mb 0.00 in0.0 mm 0.00 in0.0 mm 0.00 in0.0 mm
07:36 AM 45.9°F7.7°C 43.0°F6.1°C 90% 1.8 mph SW2.9 kmh SW 2.7 mph4.3 kmh 30.11 in1019.6 mb 0.00 in0.0 mm 0.00 in0.0 mm 0.00 in0.0 mm
07:31 AM 45.3°F7.4°C 43.0°F6.1°C 90% 1.8 mph NW2.9 kmh NW 3.6 mph5.8 kmh 30.12 in1020.0 mb 0.00 in0.0 mm 0.00 in0.0 mm 0.00 in0.0 mm
07:26 AM 44.8°F7.1°C 42.0°F5.6°C 89% 1.8 mph NW2.9 kmh NW 3.6 mph5.8 kmh 30.12 in1020.0 mb 0.00 in0.0 mm 0.00 in0.0 mm 0.00 in0.0 mm
07:21 AM 45.1°F7.3°C 42.0°F5.6°C 88% 0.9 mph NW1.4 kmh NW 1.8 mph2.9 kmh 30.12 in1020.0 mb 0.00 in0.0 mm 0.00 in0.0 mm 0.00 in0.0 mm
07:16 AM 45.7°F7.6°C 43.0°F6.1°C 88% Calm Calm 1.8 mph2.9 kmh 30.12 in1020.0 mb 0.00 in0.0 mm 0.00 in0.0 mm 0.00 in0.0 mm
07:11 AM 45.5°F7.5°C 42.0°F5.6°C 88% Calm Calm 1.8 mph2.9 kmh 30.12 in1020.0 mb 0.00 in0.0 mm 0.00 in0.0 mm 0.00 in0.0 mm
07:06 AM 44.2°F6.8°C 41.0°F5.0°C 89% 0.9 mph NW1.4 kmh NW 2.7 mph4.3 kmh 30.12 in1020.0 mb 0.00 in0.0 mm 0.00 in0.0 mm 0.00 in0.0 mm
07:01 AM 44.6°F7.0°C 41.0°F5.0°C 88% Calm Calm 0.9 mph1.4 kmh 30.12 in1020.0 mb 0.00 in0.0 mm 0.00 in0.0 mm 0.00 in0.0 mm
06:56 AM 45.1°F7.3°C 42.0°F5.6°C 88% Calm Calm 0.9 mph1.4 kmh 30.12 in1020.0 mb 0.00 in0.0 mm 0.00 in0.0 mm 0.00 in0.0 mm
06:51 AM 44.2°F6.8°C 41.0°F5.0°C 89% Calm Calm 0.9 mph1.4 kmh 30.12 in1020.0 mb 0.00 in0.0 mm 0.00 in0.0 mm 0.00 in0.0 mm
06:46 AM 43.5°F6.4°C 41.0°F5.0°C 90% 1.8 mph NW2.9 kmh NW 2.7 mph4.3 kmh 30.12 in1020.0 mb 0.00 in0.0 mm 0.00 in0.0 mm 0.00 in0.0 mm
06:41 AM 43.2°F6.2°C 40.0°F4.4°C 89% 0.9 mph NW1.4 kmh NW 1.8 mph2.9 kmh 30.12 in1020.0 mb 0.00 in0.0 mm 0.00 in0.0 mm 0.00 in0.0 mm
06:36 AM 45.1°F7.3°C 41.0°F5.0°C 86% Calm Calm 1.8 mph2.9 kmh 30.12 in1020.0 mb 0.00 in0.0 mm 0.00 in0.0 mm 0.00 in0.0 mm
06:31 AM 45.1°F7.3°C 42.0°F5.6°C 87% Calm Calm 0.9 mph1.4 kmh 30.12 in1020.0 mb 0.00 in0.0 mm 0.00 in0.0 mm 0.00 in0.0 mm
06:26 AM 44.6°F7.0°C 41.0°F5.0°C 87% Calm Calm 0.9 mph1.4 kmh 30.13 in1020.3 mb 0.00 in0.0 mm 0.00 in0.0 mm 0.00 in0.0 mm
06:21 AM 44.4°F6.9°C 41.0°F5.0°C 86% Calm Calm 0.9 mph1.4 kmh 30.12 in1020.0 mb 0.00 in0.0 mm 0.00 in0.0 mm 0.00 in0.0 mm
06:16 AM 44.6°F7.0°C 41.0°F5.0°C 86% Calm Calm 0.9 mph1.4 kmh 30.12 in1020.0 mb 0.00 in0.0 mm 0.00 in0.0 mm 0.00 in0.0 mm
06:11 AM 44.1°F6.7°C 40.0°F4.4°C 86% Calm Calm 0.9 mph1.4 kmh 30.12 in1020.0 mb 0.00 in0.0 mm 0.00 in0.0 mm 0.00 in0.0 mm
06:06 AM 44.2°F6.8°C 41.0°F5.0°C 86% Calm Calm 0.9 mph1.4 kmh 30.12 in1020.0 mb 0.00 in0.0 mm 0.00 in0.0 mm 0.00 in0.0 mm
06:01 AM 44.4°F6.9°C 41.0°F5.0°C 86% Calm Calm 1.8 mph2.9 kmh 30.12 in1020.0 mb 0.00 in0.0 mm 0.00 in0.0 mm 0.00 in0.0 mm
05:56 AM 44.2°F6.8°C 41.0°F5.0°C 87% Calm Calm 0.9 mph1.4 kmh 30.12 in1020.0 mb 0.00 in0.0 mm 0.00 in0.0 mm 0.00 in0.0 mm
05:51 AM 43.7°F6.5°C 41.0°F5.0°C 88% Calm Calm 0.9 mph1.4 kmh 30.12 in1020.0 mb 0.00 in0.0 mm 0.00 in0.0 mm 0.00 in0.0 mm
05:46 AM 43.3°F6.3°C 40.0°F4.4°C 88% Calm Calm 1.8 mph2.9 kmh 30.12 in1020.0 mb 0.00 in0.0 mm 0.00 in0.0 mm 0.00 in0.0 mm
05:41 AM 44.2°F6.8°C 41.0°F5.0°C 87% Calm Calm 0.9 mph1.4 kmh 30.12 in1020.0 mb 0.00 in0.0 mm 0.00 in0.0 mm 0.00 in0.0 mm
05:36 AM 43.9°F6.6°C 40.0°F4.4°C 87% 0.9 mph SW1.4 kmh SW 1.8 mph2.9 kmh 30.12 in1020.0 mb 0.00 in0.0 mm 0.00 in0.0 mm 0.00 in0.0 mm
05:31 AM 44.1°F6.7°C 41.0°F5.0°C 87% 0.9 mph SE1.4 kmh SE 1.8 mph2.9 kmh 30.12 in1020.0 mb 0.00 in0.0 mm 0.00 in0.0 mm 0.00 in0.0 mm
05:26 AM 44.1°F6.7°C 40.0°F4.4°C 86% 0.9 mph E1.4 kmh E 1.8 mph2.9 kmh 30.12 in1020.0 mb 0.00 in0.0 mm 0.00 in0.0 mm 0.00 in0.0 mm
05:21 AM 43.7°F6.5°C 40.0°F4.4°C 86% Calm Calm 1.8 mph2.9 kmh 30.12 in1020.0 mb 0.00 in0.0 mm 0.00 in0.0 mm 0.00 in0.0 mm
05:16 AM 44.1°F6.7°C 40.0°F4.4°C 86% Calm Calm -- 30.12 in1020.0 mb 0.00 in0.0 mm 0.00 in0.0 mm 0.00 in0.0 mm
05:11 AM 43.9°F6.6°C 40.0°F4.4°C 86% Calm Calm 0.9 mph1.4 kmh 30.12 in1020.0 mb 0.00 in0.0 mm 0.00 in0.0 mm 0.00 in0.0 mm
05:06 AM 43.9°F6.6°C 40.0°F4.4°C 86% 0.9 mph SW1.4 kmh SW 1.8 mph2.9 kmh 30.12 in1020.0 mb 0.00 in0.0 mm 0.00 in0.0 mm 0.00 in0.0 mm
05:01 AM 43.9°F6.6°C 40.0°F4.4°C 86% Calm Calm 0.9 mph1.4 kmh 30.12 in1020.0 mb 0.00 in0.0 mm 0.00 in0.0 mm 0.00 in0.0 mm
04:56 AM 43.9°F6.6°C 40.0°F4.4°C 86% Calm Calm 1.8 mph2.9 kmh 30.12 in1020.0 mb 0.00 in0.0 mm 0.00 in0.0 mm 0.00 in0.0 mm
04:51 AM 43.9°F6.6°C 40.0°F4.4°C 86% Calm Calm 1.8 mph2.9 kmh 30.11 in1019.6 mb 0.00 in0.0 mm 0.00 in0.0 mm 0.00 in0.0 mm
04:46 AM 43.7°F6.5°C 41.0°F5.0°C 88% Calm Calm 1.8 mph2.9 kmh 30.12 in1020.0 mb 0.00 in0.0 mm 0.00 in0.0 mm 0.00 in0.0 mm
04:41 AM 43.5°F6.4°C 41.0°F5.0°C 89% Calm Calm 2.7 mph4.3 kmh 30.12 in1020.0 mb 0.00 in0.0 mm 0.00 in0.0 mm 0.00 in0.0 mm
04:36 AM 43.5°F6.4°C 40.0°F4.4°C 88% Calm Calm 1.8 mph2.9 kmh 30.12 in1020.0 mb 0.00 in0.0 mm 0.00 in0.0 mm 0.00 in0.0 mm
04:31 AM 43.5°F6.4°C 40.0°F4.4°C 88% Calm Calm 1.8 mph2.9 kmh 30.12 in1020.0 mb 0.00 in0.0 mm 0.00 in0.0 mm 0.00 in0.0 mm
04:26 AM 43.9°F6.6°C 40.0°F4.4°C 87% Calm Calm 1.8 mph2.9 kmh 30.11 in1019.6 mb 0.00 in0.0 mm 0.00 in0.0 mm 0.00 in0.0 mm
04:21 AM 44.4°F6.9°C 41.0°F5.0°C 86% Calm Calm 0.9 mph1.4 kmh 30.11 in1019.6 mb 0.00 in0.0 mm 0.00 in0.0 mm 0.00 in0.0 mm
04:16 AM 44.8°F7.1°C 41.0°F5.0°C 86% Calm Calm 0.9 mph1.4 kmh 30.11 in1019.6 mb 0.00 in0.0 mm 0.00 in0.0 mm 0.00 in0.0 mm
04:11 AM 45.1°F7.3°C 41.0°F5.0°C 86% Calm Calm -- 30.12 in1020.0 mb 0.00 in0.0 mm 0.00 in0.0 mm 0.00 in0.0 mm
04:06 AM 45.3°F7.4°C 42.0°F5.6°C 86% Calm Calm 0.9 mph1.4 kmh 30.11 in1019.6 mb 0.00 in0.0 mm 0.00 in0.0 mm 0.00 in0.0 mm
04:01 AM 44.4°F6.9°C 41.0°F5.0°C 88% 1.8 mph NW2.9 kmh NW 2.7 mph4.3 kmh 30.11 in1019.6 mb 0.00 in0.0 mm 0.00 in0.0 mm 0.00 in0.0 mm
03:56 AM 45.1°F7.3°C 41.0°F5.0°C 86% 0.9 mph W1.4 kmh W 1.8 mph2.9 kmh 30.11 in1019.6 mb 0.00 in0.0 mm 0.00 in0.0 mm 0.00 in0.0 mm
03:51 AM 45.3°F7.4°C 42.0°F5.6°C 87% Calm Calm 1.8 mph2.9 kmh 30.12 in1020.0 mb 0.00 in0.0 mm 0.00 in0.0 mm 0.00 in0.0 mm
03:46 AM 45.5°F7.5°C 42.0°F5.6°C 87% Calm Calm 1.8 mph2.9 kmh 30.11 in1019.6 mb 0.00 in0.0 mm 0.00 in0.0 mm 0.00 in0.0 mm
03:41 AM 45.1°F7.3°C 41.0°F5.0°C 86% Calm Calm 0.9 mph1.4 kmh 30.12 in1020.0 mb 0.00 in0.0 mm 0.00 in0.0 mm 0.00 in0.0 mm
03:36 AM 45.1°F7.3°C 42.0°F5.6°C 88% Calm Calm 0.9 mph1.4 kmh 30.11 in1019.6 mb 0.00 in0.0 mm 0.00 in0.0 mm 0.00 in0.0 mm
03:31 AM 44.4°F6.9°C 42.0°F5.6°C 89% Calm Calm 1.8 mph2.9 kmh 30.11 in1019.6 mb 0.00 in0.0 mm 0.00 in0.0 mm 0.00 in0.0 mm
03:26 AM 44.2°F6.8°C 41.0°F5.0°C 89% 0.9 mph NW1.4 kmh NW 2.7 mph4.3 kmh 30.11 in1019.6 mb 0.00 in0.0 mm 0.00 in0.0 mm 0.00 in0.0 mm
03:21 AM 45.1°F7.3°C 41.0°F5.0°C 86% Calm Calm 1.8 mph2.9 kmh 30.12 in1020.0 mb 0.00 in0.0 mm 0.00 in0.0 mm 0.00 in0.0 mm
03:16 AM 45.9°F7.7°C 42.0°F5.6°C 86% Calm Calm 0.9 mph1.4 kmh 30.11 in1019.6 mb 0.00 in0.0 mm 0.00 in0.0 mm 0.00 in0.0 mm
03:11 AM 46.0°F7.8°C 42.0°F5.6°C 86% Calm Calm 0.9 mph1.4 kmh 30.12 in1020.0 mb 0.00 in0.0 mm 0.00 in0.0 mm 0.00 in0.0 mm
03:06 AM 45.9°F7.7°C 42.0°F5.6°C 87% Calm Calm 0.9 mph1.4 kmh 30.11 in1019.6 mb 0.00 in0.0 mm 0.00 in0.0 mm 0.00 in0.0 mm
03:01 AM 45.7°F7.6°C 43.0°F6.1°C 89% Calm Calm 1.8 mph2.9 kmh 30.11 in1019.6 mb 0.00 in0.0 mm 0.00 in0.0 mm 0.00 in0.0 mm
02:56 AM 45.0°F7.2°C 42.0°F5.6°C 89% 0.9 mph NW1.4 kmh NW 2.7 mph4.3 kmh 30.12 in1020.0 mb 0.00 in0.0 mm 0.00 in0.0 mm 0.00 in0.0 mm
02:51 AM 46.0°F7.8°C 43.0°F6.1°C 88% Calm Calm 1.8 mph2.9 kmh 30.12 in1020.0 mb 0.00 in0.0 mm 0.00 in0.0 mm 0.00 in0.0 mm
02:46 AM 45.9°F7.7°C 43.0°F6.1°C 88% 0.9 mph W1.4 kmh W 1.8 mph2.9 kmh 30.11 in1019.6 mb 0.00 in0.0 mm 0.00 in0.0 mm 0.00 in0.0 mm
02:41 AM 46.2°F7.9°C 43.0°F6.1°C 89% Calm Calm 1.8 mph2.9 kmh 30.12 in1020.0 mb 0.00 in0.0 mm 0.00 in0.0 mm 0.00 in0.0 mm
02:36 AM 46.0°F7.8°C 43.0°F6.1°C 90% Calm Calm 2.7 mph4.3 kmh 30.11 in1019.6 mb 0.00 in0.0 mm 0.00 in0.0 mm 0.00 in0.0 mm
02:31 AM 45.3°F7.4°C 43.0°F6.1°C 90% 1.8 mph NW2.9 kmh NW 3.6 mph5.8 kmh 30.12 in1020.0 mb 0.00 in0.0 mm 0.00 in0.0 mm 0.00 in0.0 mm
02:26 AM 45.5°F7.5°C 43.0°F6.1°C 90% 0.9 mph NW1.4 kmh NW 2.7 mph4.3 kmh 30.12 in1020.0 mb 0.00 in0.0 mm 0.00 in0.0 mm 0.00 in0.0 mm
02:21 AM 45.5°F7.5°C 43.0°F6.1°C 90% 2.7 mph NW4.3 kmh NW 3.6 mph5.8 kmh 30.12 in1020.0 mb 0.00 in0.0 mm 0.00 in0.0 mm 0.00 in0.0 mm
02:16 AM 46.0°F7.8°C 43.0°F6.1°C 90% 2.7 mph NW4.3 kmh NW 3.6 mph5.8 kmh 30.11 in1019.6 mb 0.00 in0.0 mm 0.00 in0.0 mm 0.00 in0.0 mm
02:11 AM 46.6°F8.1°C 44.0°F6.7°C 89% 1.8 mph NW2.9 kmh NW 3.6 mph5.8 kmh 30.11 in1019.6 mb 0.00 in0.0 mm 0.00 in0.0 mm 0.00 in0.0 mm
02:06 AM 47.8°F8.8°C 44.0°F6.7°C 87% Calm Calm 1.8 mph2.9 kmh 30.11 in1019.6 mb 0.00 in0.0 mm 0.00 in0.0 mm 0.00 in0.0 mm
02:01 AM 47.8°F8.8°C 45.0°F7.2°C 88% 0.9 mph NW1.4 kmh NW 2.7 mph4.3 kmh 30.11 in1019.6 mb 0.00 in0.0 mm 0.00 in0.0 mm 0.00 in0.0 mm
01:56 AM 47.1°F8.4°C 45.0°F7.2°C 90% 1.8 mph NW2.9 kmh NW 4.5 mph7.2 kmh 30.11 in1019.6 mb 0.00 in0.0 mm 0.00 in0.0 mm 0.00 in0.0 mm
01:51 AM 46.8°F8.2°C 44.0°F6.7°C 89% 1.8 mph NW2.9 kmh NW 4.5 mph7.2 kmh 30.11 in1019.6 mb 0.00 in0.0 mm 0.00 in0.0 mm 0.00 in0.0 mm
01:46 AM 47.3°F8.5°C 44.0°F6.7°C 89% 1.8 mph NW2.9 kmh NW 3.6 mph5.8 kmh 30.11 in1019.6 mb 0.00 in0.0 mm 0.00 in0.0 mm 0.00 in0.0 mm
01:41 AM 47.3°F8.5°C 44.0°F6.7°C 89% 1.8 mph W2.9 kmh W 3.6 mph5.8 kmh 30.11 in1019.6 mb 0.00 in0.0 mm 0.00 in0.0 mm 0.00 in0.0 mm
01:36 AM 47.7°F8.7°C 44.0°F6.7°C 88% 0.9 mph W1.4 kmh W 4.5 mph7.2 kmh 30.11 in1019.6 mb 0.00 in0.0 mm 0.00 in0.0 mm 0.00 in0.0 mm
01:31 AM 48.2°F9.0°C 45.0°F7.2°C 87% 0.9 mph W1.4 kmh W 1.8 mph2.9 kmh 30.11 in1019.6 mb 0.00 in0.0 mm 0.00 in0.0 mm 0.00 in0.0 mm
01:26 AM 49.3°F9.6°C 45.0°F7.2°C 86% Calm Calm -- 30.11 in1019.6 mb 0.00 in0.0 mm 0.00 in0.0 mm 0.00 in0.0 mm
01:21 AM 49.5°F9.7°C 46.0°F7.8°C 86% Calm Calm -- 30.11 in1019.6 mb 0.00 in0.0 mm 0.00 in0.0 mm 0.00 in0.0 mm
01:16 AM 49.6°F9.8°C 46.0°F7.8°C 86% Calm Calm 0.9 mph1.4 kmh 30.12 in1020.0 mb 0.00 in0.0 mm 0.00 in0.0 mm 0.00 in0.0 mm
01:11 AM 49.5°F9.7°C 46.0°F7.8°C 86% Calm Calm 0.9 mph1.4 kmh 30.12 in1020.0 mb 0.00 in0.0 mm 0.00 in0.0 mm 0.00 in0.0 mm
01:06 AM 50.0°F10.0°C 46.0°F7.8°C 86% Calm Calm 0.9 mph1.4 kmh 30.11 in1019.6 mb 0.00 in0.0 mm 0.00 in0.0 mm 0.00 in0.0 mm
01:01 AM 49.8°F9.9°C 46.0°F7.8°C 86% Calm Calm 0.9 mph1.4 kmh 30.12 in1020.0 mb 0.00 in0.0 mm 0.00 in0.0 mm 0.00 in0.0 mm
12:56 AM 48.7°F9.3°C 45.0°F7.2°C 87% Calm Calm 0.9 mph1.4 kmh 30.12 in1020.0 mb 0.00 in0.0 mm 0.00 in0.0 mm 0.00 in0.0 mm
12:51 AM 49.5°F9.7°C 46.0°F7.8°C 86% Calm Calm 0.9 mph1.4 kmh 30.12 in1020.0 mb 0.00 in0.0 mm 0.00 in0.0 mm 0.00 in0.0 mm
12:46 AM 49.8°F9.9°C 46.0°F7.8°C 86% Calm Calm 0.9 mph1.4 kmh 30.12 in1020.0 mb 0.00 in0.0 mm 0.00 in0.0 mm 0.00 in0.0 mm
12:41 AM 49.6°F9.8°C 46.0°F7.8°C 86% 0.9 mph SE1.4 kmh SE 2.7 mph4.3 kmh 30.12 in1020.0 mb 0.00 in0.0 mm 0.00 in0.0 mm 0.00 in0.0 mm
12:36 AM 49.5°F9.7°C 46.0°F7.8°C 87% Calm Calm 0.9 mph1.4 kmh 30.12 in1020.0 mb 0.00 in0.0 mm 0.00 in0.0 mm 0.00 in0.0 mm
12:31 AM 49.3°F9.6°C 46.0°F7.8°C 88% Calm Calm 1.8 mph2.9 kmh 30.12 in1020.0 mb 0.00 in0.0 mm 0.00 in0.0 mm 0.00 in0.0 mm
12:26 AM 48.2°F9.0°C 45.0°F7.2°C 89% 0.9 mph NW1.4 kmh NW 2.7 mph4.3 kmh 30.12 in1020.0 mb 0.00 in0.0 mm 0.00 in0.0 mm 0.00 in0.0 mm
12:21 AM 47.8°F8.8°C 45.0°F7.2°C 89% 1.8 mph NW2.9 kmh NW 2.7 mph4.3 kmh 30.12 in1020.0 mb 0.00 in0.0 mm 0.00 in0.0 mm 0.00 in0.0 mm
12:16 AM 48.4°F9.1°C 45.0°F7.2°C 87% 0.9 mph W1.4 kmh W 2.7 mph4.3 kmh 30.12 in1020.0 mb 0.00 in0.0 mm 0.00 in0.0 mm 0.00 in0.0 mm
12:11 AM 48.7°F9.3°C 45.0°F7.2°C 87% Calm Calm 0.9 mph1.4 kmh 30.12 in1020.0 mb 0.00 in0.0 mm 0.00 in0.0 mm 0.00 in0.0 mm
12:06 AM 48.6°F9.2°C 45.0°F7.2°C 87% 0.9 mph SE1.4 kmh SE 1.8 mph2.9 kmh 30.12 in1020.0 mb 0.00 in0.0 mm 0.00 in0.0 mm 0.00 in0.0 mm
12:01 AM 48.4°F9.1°C 45.0°F7.2°C 87% Calm Calm 0.9 mph1.4 kmh 30.12 in1020.0 mb 0.00 in0.0 mm 0.00 in0.0 mm 0.00 in0.0 mm